createdAt,value
2022-12-09T00:00:19.468Z,20.9
2022-12-09T00:01:22.112Z,20.9
2022-12-09T00:02:25.760Z,20.9
2022-12-09T00:03:29.468Z,20.9
2022-12-09T00:04:32.968Z,20.9
2022-12-09T00:05:36.126Z,20.9
2022-12-09T00:06:38.464Z,20.9
2022-12-09T00:07:41.138Z,20.9
2022-12-09T00:08:45.027Z,20.9
2022-12-09T00:09:47.823Z,20.9
2022-12-09T00:10:50.577Z,20.9
2022-12-09T00:11:53.473Z,20.9
2022-12-09T00:12:56.363Z,20.9
2022-12-09T00:13:59.598Z,20.9
2022-12-09T00:15:02.536Z,20.9
2022-12-09T00:16:05.449Z,21
2022-12-09T00:17:08.976Z,21
2022-12-09T00:18:12.124Z,21
2022-12-09T00:19:14.941Z,21
2022-12-09T00:20:17.531Z,21
2022-12-09T00:21:20.045Z,21
2022-12-09T00:22:22.991Z,21
2022-12-09T00:23:25.719Z,21
2022-12-09T00:24:28.251Z,21
2022-12-09T00:25:31.374Z,21
2022-12-09T00:26:34.179Z,21
2022-12-09T00:27:37.260Z,21
2022-12-09T00:28:40.070Z,21
2022-12-09T00:29:42.567Z,21
2022-12-09T00:30:45.414Z,21
2022-12-09T00:31:48.937Z,21
2022-12-09T00:32:52.201Z,21
2022-12-09T00:33:54.945Z,21
2022-12-09T00:34:57.813Z,21.1
2022-12-09T00:36:00.468Z,21.1
2022-12-09T00:37:02.983Z,21.1
2022-12-09T00:38:06.005Z,21.1
2022-12-09T00:39:08.685Z,21.1
2022-12-09T00:40:12.942Z,21.1
2022-12-09T00:41:15.529Z,21.1
2022-12-09T00:42:18.340Z,21.1
2022-12-09T00:43:20.901Z,21.2
2022-12-09T00:44:23.564Z,21.1
2022-12-09T00:45:26.077Z,21.1
2022-12-09T00:46:28.915Z,21.1
2022-12-09T00:47:32.134Z,21.1
2022-12-09T00:48:35.419Z,21.1
2022-12-09T00:49:38.284Z,21.1
2022-12-09T00:50:41.260Z,21.1
2022-12-09T00:51:44.170Z,21.1
2022-12-09T00:52:47.084Z,21.1
2022-12-09T00:53:50.099Z,21.1
2022-12-09T00:54:52.911Z,21.1
2022-12-09T00:55:55.329Z,21.1
2022-12-09T00:56:58.297Z,21.1
2022-12-09T00:58:00.808Z,21.1
2022-12-09T00:59:03.571Z,21.1
2022-12-09T01:00:07.901Z,21.2
2022-12-09T01:01:11.782Z,21.2
2022-12-09T01:02:15.597Z,21.2
2022-12-09T01:03:19.573Z,21.2
2022-12-09T01:04:22.758Z,21.2
2022-12-09T01:05:25.988Z,21.2
2022-12-09T01:06:28.836Z,21.2
2022-12-09T01:07:31.663Z,21.3
2022-12-09T01:09:41.794Z,21.3
2022-12-09T01:10:44.370Z,21.2
2022-12-09T01:11:46.508Z,21.2
2022-12-09T01:12:49.055Z,21.2
2022-12-09T01:13:51.818Z,21.2
2022-12-09T01:14:54.683Z,21.2
2022-12-09T01:15:57.523Z,21.2
2022-12-09T01:17:00.673Z,21.2
2022-12-09T01:18:03.878Z,21.2
2022-12-09T01:19:06.964Z,21.2
2022-12-09T01:20:11.180Z,21.2
2022-12-09T01:21:15.075Z,21.2
2022-12-09T01:22:17.965Z,21.2
2022-12-09T01:23:20.732Z,21.2
2022-12-09T01:24:23.520Z,21.2
2022-12-09T01:25:26.196Z,21.3
2022-12-09T01:26:29.366Z,21.3
2022-12-09T01:27:32.308Z,21.3
2022-12-09T01:28:34.733Z,21.3
2022-12-09T01:29:37.808Z,21.3
2022-12-09T01:30:40.714Z,21.3
2022-12-09T01:31:44.400Z,21.3
2022-12-09T01:32:48.531Z,21.3
2022-12-09T01:33:51.141Z,21.3
2022-12-09T01:34:54.244Z,21.3
2022-12-09T01:35:56.803Z,21.3
2022-12-09T01:36:59.847Z,21.3
2022-12-09T01:38:02.716Z,21.3
2022-12-09T01:39:06.363Z,21.3
2022-12-09T01:40:09.973Z,21.3
2022-12-09T01:41:14.316Z,21.3
2022-12-09T01:42:17.496Z,21.3
2022-12-09T01:43:20.359Z,21.3
2022-12-09T01:44:23.119Z,21.3
2022-12-09T01:45:26.042Z,21.3
2022-12-09T01:46:29.078Z,21.3
2022-12-09T01:47:32.916Z,21.3
2022-12-09T01:48:36.268Z,21.3
2022-12-09T01:49:39.736Z,21.3
2022-12-09T01:50:42.506Z,21.3
2022-12-09T01:51:45.157Z,21.3
2022-12-09T01:52:48.178Z,21.3
2022-12-09T01:53:51.444Z,21.3
2022-12-09T01:54:54.733Z,21.4
2022-12-09T01:55:57.531Z,21.4
2022-12-09T01:57:00.426Z,21.4
2022-12-09T01:58:03.192Z,21.4
2022-12-09T01:59:06.382Z,21.4
2022-12-09T02:00:09.562Z,21.4
2022-12-09T02:01:13.316Z,21.4
2022-12-09T02:02:16.981Z,21.3
2022-12-09T02:03:21.534Z,21.3
2022-12-09T02:04:25.490Z,21.3
2022-12-09T02:05:29.087Z,21.3
2022-12-09T02:06:32.098Z,21.3
2022-12-09T02:07:34.932Z,21.3
2022-12-09T02:08:37.960Z,21.3
2022-12-09T02:09:41.438Z,21.3
2022-12-09T02:10:44.594Z,21.3
2022-12-09T02:11:47.446Z,21.3
2022-12-09T02:12:50.240Z,21.3
2022-12-09T02:13:53.208Z,21.4
2022-12-09T02:14:55.601Z,21.4
2022-12-09T02:15:58.902Z,21.4
2022-12-09T02:17:02.603Z,21.4
2022-12-09T02:18:05.801Z,21.4
2022-12-09T02:19:08.666Z,21.4
2022-12-09T02:20:13.466Z,21.4
2022-12-09T02:21:16.565Z,21.4
2022-12-09T02:22:19.201Z,21.4
2022-12-09T02:23:22.386Z,21.4
2022-12-09T02:24:25.248Z,21.4
2022-12-09T02:25:27.743Z,21.4
2022-12-09T02:26:30.371Z,21.4
2022-12-09T02:27:33.555Z,21.4
2022-12-09T02:28:36.642Z,21.4
2022-12-09T02:29:39.517Z,21.4
2022-12-09T02:30:42.129Z,21.3
2022-12-09T02:31:45.407Z,21.3
2022-12-09T02:32:48.495Z,21.3
2022-12-09T02:33:51.713Z,21.3
2022-12-09T02:34:54.293Z,21.3
2022-12-09T02:35:57.028Z,21.3
2022-12-09T02:36:59.617Z,21.4
2022-12-09T02:38:02.832Z,21.4
2022-12-09T02:39:05.816Z,21.4
2022-12-09T02:40:10.811Z,21.4
2022-12-09T02:41:15.018Z,21.4
2022-12-09T02:42:17.587Z,21.4
2022-12-09T02:43:20.793Z,21.4
2022-12-09T02:44:24.350Z,21.4
2022-12-09T02:45:27.382Z,21.4
2022-12-09T02:46:30.386Z,21.4
2022-12-09T02:47:34.096Z,21.4
2022-12-09T02:48:38.740Z,21.4
2022-12-09T02:49:41.980Z,21.4
2022-12-09T02:50:44.558Z,21.4
2022-12-09T02:51:47.365Z,21.4
2022-12-09T02:52:50.085Z,21.4
2022-12-09T02:53:53.125Z,21.4
2022-12-09T02:54:56.119Z,21.4
2022-12-09T02:55:59.107Z,21.4
2022-12-09T02:57:01.732Z,21.4
2022-12-09T02:58:04.514Z,21.4
2022-12-09T02:59:07.756Z,21.4
2022-12-09T03:00:12.837Z,21.4
2022-12-09T03:01:16.843Z,21.4
2022-12-09T03:02:20.763Z,21.4
2022-12-09T03:03:24.476Z,21.4
2022-12-09T03:04:27.920Z,21.4
2022-12-09T03:05:30.453Z,21.4
2022-12-09T03:06:33.112Z,21.4
2022-12-09T03:07:35.914Z,21.4
2022-12-09T03:08:39.641Z,21.4
2022-12-09T03:09:43.796Z,21.5
2022-12-09T03:10:46.782Z,21.5
2022-12-09T03:11:50.159Z,21.5
2022-12-09T03:12:53.519Z,21.5
2022-12-09T03:13:56.045Z,21.5
2022-12-09T03:14:59.070Z,21.5
2022-12-09T03:16:02.595Z,21.4
2022-12-09T03:17:06.972Z,21.4
2022-12-09T03:18:10.974Z,21.4
2022-12-09T03:19:14.685Z,21.4
2022-12-09T03:20:17.920Z,21.4
2022-12-09T03:21:20.922Z,21.4
2022-12-09T03:22:23.622Z,21.4
2022-12-09T03:23:26.841Z,21.4
2022-12-09T03:24:29.536Z,21.4
2022-12-09T03:25:32.239Z,21.4
2022-12-09T03:26:35.636Z,21.4
2022-12-09T03:27:38.306Z,21.4
2022-12-09T03:28:41.423Z,21.4
2022-12-09T03:29:45.097Z,21.4
2022-12-09T03:30:48.306Z,21.4
2022-12-09T03:31:51.603Z,21.4
2022-12-09T03:32:55.734Z,21.4
2022-12-09T03:33:59.403Z,21.5
2022-12-09T03:35:02.410Z,21.5
2022-12-09T03:36:06.293Z,21.5
2022-12-09T03:37:09.553Z,21.5
2022-12-09T03:38:12.165Z,21.5
2022-12-09T03:39:14.963Z,21.5
2022-12-09T03:40:20.191Z,21.5
2022-12-09T03:41:24.873Z,21.4
2022-12-09T03:42:28.413Z,21.4
2022-12-09T03:43:31.798Z,21.4
2022-12-09T03:44:34.885Z,21.4
2022-12-09T03:45:38.668Z,21.4
2022-12-09T03:46:42.666Z,21.4
2022-12-09T03:47:46.757Z,21.4
2022-12-09T03:48:50.024Z,21.4
2022-12-09T03:49:52.980Z,21.4
2022-12-09T03:50:55.994Z,21.4
2022-12-09T03:51:59.046Z,21.4
2022-12-09T03:53:02.043Z,21.4
2022-12-09T03:54:05.373Z,21.4
2022-12-09T03:55:08.730Z,21.4
2022-12-09T03:56:12.194Z,21.4
2022-12-09T03:58:20.481Z,21.5
2022-12-09T03:59:23.853Z,21.5
2022-12-09T04:00:27.018Z,21.5
2022-12-09T04:01:30.468Z,21.5
2022-12-09T04:02:35.154Z,21.5
2022-12-09T04:03:38.768Z,21.5
2022-12-09T04:04:43.350Z,21.5
2022-12-09T04:05:46.579Z,21.4
2022-12-09T04:06:49.262Z,21.4
2022-12-09T04:07:52.465Z,21.4
2022-12-09T04:10:01.251Z,21.4
2022-12-09T04:11:04.655Z,21.4
2022-12-09T04:12:07.160Z,21.4
2022-12-09T04:13:10.503Z,21.4
2022-12-09T04:15:18.807Z,21.3
2022-12-09T04:16:22.177Z,21.3
2022-12-09T04:17:25.623Z,21.3
2022-12-09T04:18:29.759Z,21.3
2022-12-09T04:19:32.812Z,21.3
2022-12-09T04:20:35.729Z,21.3
2022-12-09T04:21:39.208Z,21.3
2022-12-09T04:22:42.114Z,21.3
2022-12-09T04:23:45.209Z,21.3
2022-12-09T04:24:48.623Z,21.2
2022-12-09T04:25:51.704Z,21.2
2022-12-09T04:26:54.460Z,21.2
2022-12-09T04:27:57.606Z,21.2
2022-12-09T04:29:01.244Z,21.2
2022-12-09T04:30:05.466Z,21.2
2022-12-09T04:31:11.145Z,21.2
2022-12-09T04:32:15.308Z,21.2
2022-12-09T04:33:18.610Z,21.2
2022-12-09T04:34:21.364Z,21.2
2022-12-09T04:35:24.383Z,21.2
2022-12-09T04:36:27.884Z,21.2
2022-12-09T04:37:30.749Z,21.2
2022-12-09T04:38:33.906Z,21.2
2022-12-09T04:39:37.401Z,21.2
2022-12-09T04:40:40.349Z,21.2
2022-12-09T04:41:43.150Z,21.1
2022-12-09T04:42:46.112Z,21.2
2022-12-09T04:43:49.227Z,21.1
2022-12-09T04:44:51.974Z,21.1
2022-12-09T04:45:55.377Z,21.2
2022-12-09T04:46:58.560Z,21.1
2022-12-09T04:48:02.164Z,21.1
2022-12-09T04:49:06.262Z,21.1
2022-12-09T04:50:10.393Z,21.1
2022-12-09T04:51:15.546Z,21.1
2022-12-09T04:52:19.193Z,21.1
2022-12-09T04:53:22.627Z,21.1
2022-12-09T04:54:26.103Z,21.2
2022-12-09T04:55:28.460Z,21.1
2022-12-09T04:56:31.500Z,21.1
2022-12-09T04:57:34.715Z,21.1
2022-12-09T04:58:37.708Z,21.1
2022-12-09T04:59:40.107Z,21.1
2022-12-09T05:00:43.349Z,21.1
2022-12-09T05:01:46.613Z,21.1
2022-12-09T05:02:50.772Z,21.1
2022-12-09T05:03:54.906Z,21.1
2022-12-09T05:04:59.009Z,21.1
2022-12-09T05:06:03.359Z,21.1
2022-12-09T05:07:07.013Z,21.1
2022-12-09T05:08:11.444Z,21.1
2022-12-09T05:09:16.065Z,21.1
2022-12-09T05:10:20.174Z,21.1
2022-12-09T05:11:23.820Z,21.1
2022-12-09T05:12:27.569Z,21.1
2022-12-09T05:13:30.452Z,21.1
2022-12-09T05:14:33.469Z,21.1
2022-12-09T05:15:37.062Z,21.1
2022-12-09T05:16:40.602Z,21.1
2022-12-09T05:17:45.339Z,21.1
2022-12-09T05:18:49.941Z,21.1
2022-12-09T05:19:53.693Z,21.1
2022-12-09T05:20:56.683Z,21.1
2022-12-09T05:21:59.958Z,21.1
2022-12-09T05:24:08.285Z,21.1
2022-12-09T05:25:11.585Z,21.1
2022-12-09T05:26:14.646Z,21.1
2022-12-09T05:27:18.012Z,21.1
2022-12-09T05:28:21.138Z,21.1
2022-12-09T05:29:24.913Z,21.1
2022-12-09T05:30:27.646Z,21.1
2022-12-09T05:31:31.273Z,21.1
2022-12-09T05:32:34.929Z,21.1
2022-12-09T05:33:39.547Z,21
2022-12-09T05:34:43.579Z,21
2022-12-09T05:36:51.799Z,21
2022-12-09T05:37:54.875Z,21
2022-12-09T05:38:58.009Z,21
2022-12-09T05:40:01.304Z,21
2022-12-09T05:41:04.653Z,21
2022-12-09T05:42:07.745Z,21
2022-12-09T05:43:10.514Z,21
2022-12-09T05:44:13.482Z,21
2022-12-09T05:45:16.839Z,21
2022-12-09T05:46:20.713Z,21
2022-12-09T05:47:24.867Z,21
2022-12-09T05:48:28.682Z,21
2022-12-09T05:49:33.135Z,21
2022-12-09T05:50:36.650Z,21
2022-12-09T05:51:39.811Z,21
2022-12-09T05:52:42.693Z,21
2022-12-09T05:53:45.636Z,21
2022-12-09T05:54:49.862Z,21
2022-12-09T05:55:53.331Z,21
2022-12-09T05:56:57.408Z,21
2022-12-09T05:58:01.035Z,21
2022-12-09T05:59:04.394Z,21
2022-12-09T06:00:09.577Z,21
2022-12-09T06:01:13.803Z,21
2022-12-09T06:02:17.475Z,21
2022-12-09T06:03:21.575Z,21
2022-12-09T06:04:26.242Z,21
2022-12-09T06:05:31.031Z,21
2022-12-09T06:06:35.020Z,21
2022-12-09T06:07:39.515Z,21
2022-12-09T06:08:44.460Z,21
2022-12-09T06:09:48.050Z,21
2022-12-09T06:10:51.597Z,21
2022-12-09T06:11:54.753Z,21
2022-12-09T06:12:57.893Z,21
2022-12-09T06:14:00.933Z,21
2022-12-09T06:15:04.127Z,21
2022-12-09T06:16:11.347Z,21
2022-12-09T06:17:15.720Z,21
2022-12-09T06:18:19.307Z,21
2022-12-09T06:19:22.623Z,21
2022-12-09T06:20:25.756Z,21
2022-12-09T06:21:29.272Z,21
2022-12-09T06:22:32.644Z,21
2022-12-09T06:23:36.038Z,21
2022-12-09T06:24:39.425Z,21
2022-12-09T06:25:42.301Z,21
2022-12-09T06:26:45.536Z,21
2022-12-09T06:27:48.633Z,21
2022-12-09T06:28:51.571Z,21
2022-12-09T06:29:54.719Z,21
2022-12-09T06:30:58.578Z,21
2022-12-09T06:32:02.534Z,21
2022-12-09T06:34:11.156Z,21
2022-12-09T06:35:16.952Z,21
2022-12-09T06:36:20.803Z,21
2022-12-09T06:37:24.164Z,20.9
2022-12-09T06:38:27.234Z,20.9
2022-12-09T06:39:30.230Z,20.9
2022-12-09T06:40:33.527Z,20.9
2022-12-09T06:41:36.538Z,20.9
2022-12-09T06:42:40.151Z,20.9
2022-12-09T06:43:43.296Z,20.9
2022-12-09T06:44:46.745Z,20.9
2022-12-09T06:45:49.645Z,20.9
2022-12-09T06:46:52.975Z,20.9
2022-12-09T06:47:57.325Z,20.9
2022-12-09T06:49:01.042Z,20.9
2022-12-09T06:51:09.650Z,20.9
2022-12-09T06:52:13.639Z,20.9
2022-12-09T06:53:16.571Z,20.9
2022-12-09T06:54:19.336Z,20.9
2022-12-09T06:55:22.812Z,20.9
2022-12-09T06:56:26.220Z,20.9
2022-12-09T06:57:30.071Z,20.9
2022-12-09T06:58:33.331Z,20.9
2022-12-09T06:59:36.462Z,20.9
2022-12-09T07:00:39.817Z,20.9
2022-12-09T07:01:44.841Z,20.9
2022-12-09T07:02:49.410Z,20.9
2022-12-09T07:03:54.408Z,20.9
2022-12-09T07:04:59.877Z,20.9
2022-12-09T07:06:04.621Z,20.9
2022-12-09T07:07:08.325Z,20.9
2022-12-09T07:08:13.332Z,20.9
2022-12-09T07:09:17.800Z,20.9
2022-12-09T07:10:22.303Z,20.9
2022-12-09T07:11:26.480Z,20.9
2022-12-09T07:12:29.820Z,20.9
2022-12-09T07:13:33.228Z,20.9
2022-12-09T07:14:36.193Z,20.9
2022-12-09T07:15:39.243Z,20.9
2022-12-09T07:16:42.911Z,20.9
2022-12-09T07:17:46.834Z,20.9
2022-12-09T07:18:51.198Z,20.9
2022-12-09T07:19:54.843Z,20.9
2022-12-09T07:21:03.947Z,20.9
2022-12-09T07:22:06.853Z,20.9
2022-12-09T07:23:10.144Z,20.9
2022-12-09T07:24:13.333Z,20.9
2022-12-09T07:25:17.572Z,20.9
2022-12-09T07:26:20.697Z,20.9
2022-12-09T07:27:24.034Z,20.9
2022-12-09T07:28:27.055Z,20.9
2022-12-09T07:29:30.220Z,20.9
2022-12-09T07:30:33.291Z,20.9
2022-12-09T07:31:37.493Z,20.9
2022-12-09T07:32:41.381Z,20.9
2022-12-09T07:33:45.343Z,20.9
2022-12-09T07:34:49.497Z,20.9
2022-12-09T07:35:53.281Z,20.9
2022-12-09T07:36:56.699Z,20.9
2022-12-09T07:37:59.858Z,20.9
2022-12-09T07:39:03.231Z,20.9
2022-12-09T07:40:06.755Z,20.9
2022-12-09T07:41:10.161Z,20.9
2022-12-09T07:42:13.226Z,20.9
2022-12-09T07:43:16.318Z,20.9
2022-12-09T07:44:19.354Z,20.9
2022-12-09T07:45:22.656Z,20.9
2022-12-09T07:46:26.652Z,20.9
2022-12-09T07:47:31.064Z,20.9
2022-12-09T07:48:35.154Z,20.9
2022-12-09T07:49:39.801Z,20.9
2022-12-09T07:50:43.411Z,20.9
2022-12-09T07:51:46.463Z,20.9
2022-12-09T07:52:49.810Z,20.9
2022-12-09T07:53:53.692Z,20.9
2022-12-09T07:54:57.582Z,20.9
2022-12-09T07:56:00.487Z,20.9
2022-12-09T07:57:03.680Z,20.9
2022-12-09T07:58:07.208Z,20.9
2022-12-09T07:59:10.369Z,20.9
2022-12-09T08:00:13.483Z,20.9
2022-12-09T08:01:16.735Z,20.9
2022-12-09T08:02:20.189Z,20.9
2022-12-09T08:03:23.831Z,20.9
2022-12-09T08:04:28.196Z,20.9
2022-12-09T08:05:32.780Z,20.9
2022-12-09T08:06:37.898Z,20.9
2022-12-09T08:08:47.312Z,20.9
2022-12-09T08:09:52.326Z,20.9
2022-12-09T08:10:57.161Z,20.9
2022-12-09T08:12:01.074Z,20.9
2022-12-09T08:13:04.943Z,20.9
2022-12-09T08:15:14.831Z,20.9
2022-12-09T08:16:20.518Z,20.9
2022-12-09T08:17:25.312Z,20.9
2022-12-09T08:18:28.990Z,20.9
2022-12-09T08:19:33.831Z,20.9
2022-12-09T08:20:37.860Z,20.9
2022-12-09T08:21:41.658Z,20.9
2022-12-09T08:22:45.506Z,20.9
2022-12-09T08:23:49.382Z,20.9
2022-12-09T08:24:53.090Z,20.9
2022-12-09T08:25:56.568Z,20.9
2022-12-09T08:27:00.235Z,20.9
2022-12-09T08:28:04.733Z,20.9
2022-12-09T08:29:09.137Z,20.9
2022-12-09T08:30:15.219Z,20.9
2022-12-09T08:31:21.819Z,20.9
2022-12-09T08:32:27.259Z,20.9
2022-12-09T08:33:31.336Z,20.9
2022-12-09T08:34:35.728Z,20.9
2022-12-09T08:35:39.242Z,20.9
2022-12-09T08:36:42.434Z,20.9
2022-12-09T08:37:46.559Z,20.9
2022-12-09T08:38:49.470Z,20.9
2022-12-09T08:39:52.661Z,20.9
2022-12-09T08:40:56.000Z,20.9
2022-12-09T08:41:58.826Z,20.9
2022-12-09T08:43:02.385Z,20.9
2022-12-09T08:44:05.516Z,20.9
2022-12-09T08:45:09.287Z,20.9
2022-12-09T08:46:13.656Z,20.9
2022-12-09T08:47:18.063Z,20.9
2022-12-09T08:48:22.190Z,20.9
2022-12-09T08:49:26.570Z,20.9
2022-12-09T08:50:30.377Z,20.9
2022-12-09T08:51:33.261Z,20.9
2022-12-09T08:53:42.186Z,20.9
2022-12-09T08:54:45.622Z,20.9
2022-12-09T08:55:49.076Z,20.9
2022-12-09T08:56:52.201Z,20.9
2022-12-09T08:57:55.379Z,20.9
2022-12-09T08:58:58.793Z,20.9
2022-12-09T09:00:03.164Z,20.9
2022-12-09T09:01:07.314Z,20.9
2022-12-09T09:02:11.655Z,20.9
2022-12-09T09:03:15.621Z,20.9
2022-12-09T09:04:20.496Z,20.9
2022-12-09T09:05:26.053Z,20.9
2022-12-09T09:06:31.224Z,20.9
2022-12-09T09:07:35.516Z,20.9
2022-12-09T09:08:39.832Z,20.9
2022-12-09T09:09:43.899Z,20.9
2022-12-09T09:10:47.633Z,20.9
2022-12-09T09:11:51.775Z,20.9
2022-12-09T09:12:54.892Z,20.9
2022-12-09T09:13:58.641Z,20.9
2022-12-09T09:15:02.018Z,20.9
2022-12-09T09:16:06.315Z,20.9
2022-12-09T09:17:11.004Z,20.9
2022-12-09T09:18:15.047Z,20.9
2022-12-09T09:19:19.493Z,20.9
2022-12-09T09:20:24.092Z,20.9
2022-12-09T09:21:27.737Z,20.9
2022-12-09T09:22:31.229Z,20.9
2022-12-09T09:23:34.703Z,20.9
2022-12-09T09:24:38.416Z,20.9
2022-12-09T09:25:42.095Z,20.9
2022-12-09T09:26:46.982Z,20.9
2022-12-09T09:27:50.453Z,20.9
2022-12-09T09:28:53.791Z,20.9
2022-12-09T09:29:56.922Z,20.9
2022-12-09T09:31:00.757Z,20.9
2022-12-09T09:32:04.896Z,20.9
2022-12-09T09:33:09.557Z,20.9
2022-12-09T09:34:14.137Z,20.9
2022-12-09T09:35:18.002Z,20.9
2022-12-09T09:36:22.570Z,20.9
2022-12-09T09:37:27.128Z,20.9
2022-12-09T09:38:30.749Z,20.9
2022-12-09T09:39:34.177Z,20.9
2022-12-09T09:40:37.401Z,20.9
2022-12-09T09:41:40.978Z,20.9
2022-12-09T09:42:44.637Z,20.9
2022-12-09T09:43:47.819Z,20.9
2022-12-09T09:44:51.461Z,20.9
2022-12-09T09:45:55.258Z,20.9
2022-12-09T09:47:00.403Z,20.9
2022-12-09T09:48:04.789Z,20.9
2022-12-09T09:49:09.447Z,20.9
2022-12-09T09:50:14.608Z,20.9
2022-12-09T09:51:19.936Z,20.9
2022-12-09T09:52:23.286Z,20.9
2022-12-09T09:53:26.787Z,20.9
2022-12-09T09:54:30.505Z,20.9
2022-12-09T09:55:33.918Z,20.9
2022-12-09T09:56:37.568Z,20.9
2022-12-09T09:57:41.136Z,20.9
2022-12-09T09:58:44.261Z,20.8
2022-12-09T09:59:48.238Z,20.9
2022-12-09T10:00:52.486Z,20.9
2022-12-09T10:01:57.040Z,20.8
2022-12-09T10:03:03.633Z,20.9
2022-12-09T10:04:09.645Z,20.9
2022-12-09T10:05:15.468Z,20.8
2022-12-09T10:06:20.601Z,20.8
2022-12-09T10:07:26.104Z,20.8
2022-12-09T10:08:31.236Z,20.8
2022-12-09T10:09:36.137Z,20.8
2022-12-09T10:10:41.255Z,20.8
2022-12-09T10:11:47.147Z,20.8
2022-12-09T10:12:54.515Z,20.8
2022-12-09T10:13:59.516Z,20.8
2022-12-09T10:15:04.382Z,20.8
2022-12-09T10:16:09.313Z,20.8
2022-12-09T10:17:14.642Z,20.8
2022-12-09T10:18:18.235Z,20.8
2022-12-09T10:19:22.603Z,20.8
2022-12-09T10:20:27.546Z,20.8
2022-12-09T10:21:32.096Z,20.8
2022-12-09T10:22:36.083Z,20.8
2022-12-09T10:23:40.342Z,20.8
2022-12-09T10:24:44.613Z,20.8
2022-12-09T10:25:48.170Z,20.8
2022-12-09T10:26:52.030Z,20.8
2022-12-09T10:27:55.389Z,20.8
2022-12-09T10:28:58.685Z,20.8
2022-12-09T10:30:02.539Z,20.8
2022-12-09T10:31:07.846Z,20.8
2022-12-09T10:32:12.172Z,20.8
2022-12-09T10:33:16.675Z,20.8
2022-12-09T10:34:21.237Z,20.8
2022-12-09T10:35:25.724Z,20.8
2022-12-09T10:37:35.303Z,20.8
2022-12-09T10:38:39.047Z,20.8
2022-12-09T10:39:42.672Z,20.8
2022-12-09T10:40:46.110Z,20.8
2022-12-09T10:41:50.085Z,20.8
2022-12-09T10:42:52.996Z,20.8
2022-12-09T10:43:56.583Z,20.8
2022-12-09T10:45:00.063Z,20.8
2022-12-09T10:47:08.839Z,20.8
2022-12-09T10:48:13.927Z,20.8
2022-12-09T10:49:17.515Z,20.8
2022-12-09T10:50:22.097Z,20.8
2022-12-09T10:51:26.905Z,20.8
2022-12-09T10:52:31.059Z,20.8
2022-12-09T10:53:34.627Z,20.8
2022-12-09T10:54:38.627Z,20.8
2022-12-09T10:55:42.726Z,20.8
2022-12-09T10:56:46.225Z,20.8
2022-12-09T10:57:49.917Z,20.8
2022-12-09T10:58:53.521Z,20.8
2022-12-09T10:59:56.739Z,20.8
2022-12-09T11:01:02.126Z,20.8
2022-12-09T11:02:06.270Z,20.8
2022-12-09T11:03:10.724Z,20.8
2022-12-09T11:04:15.119Z,20.8
2022-12-09T11:05:19.068Z,20.8
2022-12-09T11:06:24.556Z,20.8
2022-12-09T11:07:29.809Z,20.8
2022-12-09T11:08:34.261Z,20.8
2022-12-09T11:09:39.649Z,20.8
2022-12-09T11:10:44.979Z,20.8
2022-12-09T11:11:48.785Z,20.8
2022-12-09T11:12:52.665Z,20.8
2022-12-09T11:13:56.323Z,20.8
2022-12-09T11:14:59.830Z,20.8
2022-12-09T11:16:03.825Z,20.8
2022-12-09T11:17:08.807Z,20.8
2022-12-09T11:18:12.793Z,20.8
2022-12-09T11:19:16.861Z,20.8
2022-12-09T11:20:22.439Z,20.8
2022-12-09T11:21:26.706Z,20.8
2022-12-09T11:22:30.967Z,20.8
2022-12-09T11:23:35.615Z,20.8
2022-12-09T11:24:40.029Z,20.8
2022-12-09T11:25:44.052Z,20.8
2022-12-09T11:26:47.104Z,20.8
2022-12-09T11:27:50.852Z,20.8
2022-12-09T11:28:54.544Z,20.8
2022-12-09T11:29:57.715Z,20.8
2022-12-09T11:32:06.507Z,20.8
2022-12-09T11:33:10.613Z,20.8
2022-12-09T11:34:15.405Z,20.8
2022-12-09T11:35:19.767Z,20.9
2022-12-09T11:36:23.164Z,20.8
2022-12-09T11:37:26.420Z,20.8
2022-12-09T11:38:28.643Z,20.8
2022-12-09T11:39:31.141Z,20.8
2022-12-09T11:40:33.394Z,20.8
2022-12-09T11:41:35.064Z,20.8
2022-12-09T11:42:37.615Z,20.9
2022-12-09T11:43:39.861Z,20.9
2022-12-09T11:44:42.430Z,20.9
2022-12-09T11:45:44.627Z,20.9
2022-12-09T11:46:46.655Z,20.9
2022-12-09T11:48:54.678Z,20.9
2022-12-09T11:49:56.763Z,20.9
2022-12-09T11:50:58.792Z,20.9
2022-12-09T11:52:00.453Z,20.9
2022-12-09T11:53:02.682Z,20.9
2022-12-09T11:54:05.185Z,20.9
2022-12-09T11:55:07.440Z,20.9
2022-12-09T11:56:09.670Z,20.9
2022-12-09T11:57:11.614Z,20.9
2022-12-09T11:58:14.132Z,20.8
2022-12-09T11:59:16.370Z,20.9
2022-12-09T12:00:18.868Z,20.8
2022-12-09T12:01:21.344Z,20.9
2022-12-09T12:02:23.772Z,20.8
2022-12-09T12:03:26.697Z,20.8
2022-12-09T12:04:29.385Z,20.9
2022-12-09T12:05:31.588Z,20.8
2022-12-09T12:06:33.778Z,20.8
2022-12-09T12:07:36.006Z,20.9
2022-12-09T12:08:38.877Z,20.8
2022-12-09T12:09:41.624Z,20.8
2022-12-09T12:10:44.118Z,20.8
2022-12-09T12:11:45.774Z,20.8
2022-12-09T12:12:48.267Z,20.8
2022-12-09T12:13:50.509Z,20.8
2022-12-09T12:14:53.020Z,20.8
2022-12-09T12:15:55.257Z,20.8
2022-12-09T12:16:57.947Z,20.9
2022-12-09T12:18:00.728Z,20.9
2022-12-09T12:19:03.206Z,20.9
2022-12-09T12:20:06.554Z,20.9
2022-12-09T12:21:09.599Z,20.8
2022-12-09T12:22:11.542Z,20.9
2022-12-09T12:23:13.757Z,20.9
2022-12-09T12:24:15.685Z,20.9
2022-12-09T12:25:19.958Z,20.9
2022-12-09T12:26:23.509Z,20.9
2022-12-09T12:27:26.015Z,20.9
2022-12-09T12:28:28.516Z,20.9
2022-12-09T12:29:31.027Z,20.9
2022-12-09T12:30:33.365Z,20.9
2022-12-09T12:31:35.723Z,20.9
2022-12-09T12:32:38.186Z,20.9
2022-12-09T12:34:45.667Z,20.9
2022-12-09T12:35:47.907Z,20.9
2022-12-09T12:36:50.409Z,20.9
2022-12-09T12:37:52.625Z,20.9
2022-12-09T12:38:54.561Z,20.9
2022-12-09T12:39:57.066Z,20.9
2022-12-09T12:40:59.293Z,20.9
2022-12-09T12:42:01.792Z,20.9
2022-12-09T12:43:04.334Z,20.9
2022-12-09T12:44:06.556Z,20.9
2022-12-09T12:45:09.201Z,20.9
2022-12-09T12:46:11.822Z,20.9
2022-12-09T12:47:14.450Z,20.9
2022-12-09T12:48:17.082Z,20.9
2022-12-09T12:49:18.901Z,20.9
2022-12-09T12:50:21.167Z,20.9
2022-12-09T12:51:23.547Z,20.9
2022-12-09T12:53:31.024Z,20.9
2022-12-09T12:54:32.991Z,20.9
2022-12-09T12:55:35.472Z,20.9
2022-12-09T12:56:37.400Z,20.9
2022-12-09T12:57:39.626Z,20.9
2022-12-09T12:58:42.225Z,20.9
2022-12-09T12:59:44.454Z,20.8
2022-12-09T13:00:46.933Z,20.9
2022-12-09T13:01:49.834Z,20.8
2022-12-09T13:03:56.769Z,20.8
2022-12-09T13:04:58.980Z,20.8
2022-12-09T13:06:01.464Z,20.8
2022-12-09T13:07:03.703Z,20.8
2022-12-09T13:08:06.158Z,20.8
2022-12-09T13:09:08.619Z,20.8
2022-12-09T13:10:11.622Z,20.8
2022-12-09T13:11:13.840Z,20.8
2022-12-09T13:12:16.089Z,20.8
2022-12-09T13:13:18.569Z,20.8
2022-12-09T13:14:20.508Z,20.8
2022-12-09T13:15:22.982Z,20.8
2022-12-09T13:16:25.403Z,20.8
2022-12-09T13:17:28.331Z,20.8
2022-12-09T13:18:30.567Z,20.8
2022-12-09T13:19:32.489Z,20.8
2022-12-09T13:20:34.431Z,20.8
2022-12-09T13:21:36.954Z,20.8
2022-12-09T13:22:38.926Z,20.8
2022-12-09T13:23:40.829Z,20.8
2022-12-09T13:24:42.514Z,20.8
2022-12-09T13:25:45.049Z,20.8
2022-12-09T13:26:47.559Z,20.8
2022-12-09T13:27:49.472Z,20.8
2022-12-09T13:28:51.702Z,20.8
2022-12-09T13:29:54.236Z,20.8
2022-12-09T13:30:57.003Z,20.8
2022-12-09T13:31:59.436Z,20.8
2022-12-09T13:33:01.978Z,20.8
2022-12-09T13:34:04.224Z,20.8
2022-12-09T13:35:06.459Z,20.8
2022-12-09T13:36:08.711Z,20.8
2022-12-09T13:37:11.205Z,20.8
2022-12-09T13:38:13.173Z,20.8
2022-12-09T13:39:15.712Z,20.8
2022-12-09T13:40:17.924Z,20.8
2022-12-09T13:41:19.879Z,20.8
2022-12-09T13:42:22.107Z,20.8
2022-12-09T13:43:24.621Z,20.8
2022-12-09T13:44:26.818Z,20.8
2022-12-09T13:45:29.197Z,20.8
2022-12-09T13:46:31.594Z,20.8
2022-12-09T13:47:34.150Z,20.8
2022-12-09T13:48:36.405Z,20.8
2022-12-09T13:49:38.438Z,20.8
2022-12-09T13:50:40.104Z,20.8
2022-12-09T13:51:42.015Z,20.8
2022-12-09T13:52:44.241Z,20.8
2022-12-09T13:53:47.591Z,20.8
2022-12-09T13:54:49.840Z,20.8
2022-12-09T13:55:52.335Z,20.8
2022-12-09T13:56:54.836Z,20.8
2022-12-09T13:57:56.769Z,20.8
2022-12-09T13:58:59.483Z,20.8
2022-12-09T14:00:01.969Z,20.8
2022-12-09T14:01:05.955Z,20.8
2022-12-09T14:02:08.065Z,20.8
2022-12-09T14:03:10.909Z,20.8
2022-12-09T14:04:13.584Z,20.8
2022-12-09T14:05:16.169Z,20.8
2022-12-09T14:06:18.670Z,20.8
2022-12-09T14:07:20.891Z,20.8
2022-12-09T14:08:23.400Z,20.8
2022-12-09T14:09:25.269Z,20.8
2022-12-09T14:10:27.220Z,20.8
2022-12-09T14:11:29.456Z,20.8
2022-12-09T14:12:31.938Z,20.8
2022-12-09T14:13:34.426Z,20.8
2022-12-09T14:14:36.632Z,20.8
2022-12-09T14:15:39.437Z,20.8
2022-12-09T14:16:41.671Z,20.8
2022-12-09T14:17:43.885Z,20.8
2022-12-09T14:18:46.391Z,20.8
2022-12-09T14:19:48.366Z,20.8
2022-12-09T14:20:50.756Z,20.8
2022-12-09T14:21:53.012Z,20.8
2022-12-09T14:22:55.255Z,20.8
2022-12-09T14:23:57.504Z,20.8
2022-12-09T14:24:59.732Z,20.8
2022-12-09T14:26:01.939Z,20.8
2022-12-09T14:27:04.170Z,20.8
2022-12-09T14:28:06.693Z,20.8